Time;durP1;ratioP1;P1;durP2;ratioP2;P2;SDS_P1;SDS_P2;PMS_P1;PMS_P2;Temp;Humidity;BMP_temperature;BMP_pressure;BME280_temperature;BME280_humidity;BME280_pressure;Samples;Min_cycle;Max_cycle;Signal;HPM_P1;HPM_P2
2022/01/05 00:00:09;;;;;;;1.83;1.38;;;8.70;99.90;;;;;;4979275;28;20518;-68
2022/01/05 00:02:35;;;;;;;2.25;1.20;;;8.70;99.90;;;;;;4978692;28;20130;-68
2022/01/05 00:05:03;;;;;;;3.92;1.40;;;8.90;99.90;;;;;;4983484;28;20436;-68
2022/01/05 00:07:28;;;;;;;2.15;1.15;;;9.00;99.90;;;;;;4984693;28;20025;-68
2022/01/05 00:09:54;;;;;;;4.80;1.25;;;9.10;99.90;;;;;;4985643;28;20026;-69
2022/01/05 00:12:20;;;;;;;6.25;2.08;;;9.30;99.90;;;;;;4994514;28;20042;-68
2022/01/05 00:14:45;;;;;;;1.80;1.45;;;9.50;99.90;;;;;;4993960;28;20085;-68
2022/01/05 00:17:11;;;;;;;4.07;1.70;;;9.60;99.90;;;;;;4980883;28;20034;-67
2022/01/05 00:19:37;;;;;;;2.90;1.33;;;9.70;99.90;;;;;;4980101;28;20700;-67
2022/01/05 00:22:03;;;;;;;2.55;1.15;;;9.80;99.90;;;;;;4983259;28;20069;-66
2022/01/05 00:24:29;;;;;;;1.92;1.15;;;9.80;99.90;;;;;;4986345;28;20030;-68
2022/01/05 00:26:58;;;;;;;1.73;1.30;;;9.80;99.90;;;;;;4983068;28;20042;-68
2022/01/05 00:29:23;;;;;;;2.67;1.38;;;9.90;99.90;;;;;;4985805;28;20069;-68
2022/01/05 00:31:50;;;;;;;2.67;1.35;;;9.80;99.90;;;;;;4978649;28;20129;-68
2022/01/05 00:34:15;;;;;;;3.80;1.30;;;9.80;99.90;;;;;;4985290;28;20062;-68
2022/01/05 00:36:41;;;;;;;1.15;0.95;;;9.80;99.90;;;;;;4988012;28;20178;-68
2022/01/05 00:39:07;;;;;;;2.35;1.30;;;9.70;99.90;;;;;;4989122;28;20022;-69
2022/01/05 00:41:33;;;;;;;2.75;1.45;;;9.60;99.90;;;;;;4986771;28;20412;-67
2022/01/05 00:43:58;;;;;;;1.92;1.17;;;9.50;99.90;;;;;;4985208;28;20027;-67
2022/01/05 00:46:24;;;;;;;1.88;1.20;;;9.30;99.90;;;;;;4988247;28;20106;-67
2022/01/05 00:48:49;;;;;;;1.80;1.45;;;9.30;99.90;;;;;;4981434;28;20054;-68
2022/01/05 00:51:15;;;;;;;3.10;1.30;;;9.40;99.90;;;;;;4983428;28;20117;-67
2022/01/05 00:53:44;;;;;;;2.05;1.10;;;9.40;99.90;;;;;;4982613;28;20054;-68
2022/01/05 00:56:09;;;;;;;2.20;1.10;;;9.40;99.90;;;;;;4981841;28;20030;-68
2022/01/05 00:58:35;;;;;;;2.58;1.27;;;9.20;99.90;;;;;;4984374;28;20124;-67
2022/01/05 01:01:01;;;;;;;2.03;1.42;;;9.20;99.90;;;;;;4984011;28;20049;-68
2022/01/05 01:03:28;;;;;;;1.05;0.95;;;9.10;99.90;;;;;;4996078;28;20053;-68
2022/01/05 01:05:54;;;;;;;1.27;0.98;;;9.00;99.90;;;;;;4978172;28;20085;-68
2022/01/05 01:08:20;;;;;;;2.35;0.90;;;9.00;99.90;;;;;;4984317;28;20042;-68
2022/01/05 01:10:46;;;;;;;2.70;1.30;;;8.90;99.90;;;;;;4981632;28;20030;-68
2022/01/05 01:13:16;;;;;;;2.65;1.17;;;8.90;99.90;;;;;;4984169;28;20038;-68
2022/01/05 01:15:52;;;;;;;2.38;1.35;;;9.10;99.90;;;;;;4982362;28;20030;-68
2022/01/05 01:18:19;;;;;;;1.10;1.00;;;9.20;99.90;;;;;;4993271;28;20039;-68
2022/01/05 01:20:47;;;;;;;1.08;0.90;;;9.20;99.90;;;;;;4983852;28;20038;-68
2022/01/05 01:23:14;;;;;;;5.32;1.55;;;9.10;99.90;;;;;;4985706;28;20524;-68
2022/01/05 01:25:40;;;;;;;2.03;1.23;;;8.90;99.90;;;;;;4980236;28;20022;-68
2022/01/05 01:28:06;;;;;;;2.42;1.20;;;8.90;99.90;;;;;;4981865;28;20637;-68
2022/01/05 01:30:32;;;;;;;1.40;1.10;;;8.90;99.90;;;;;;4982453;28;20030;-68
2022/01/05 01:32:59;;;;;;;2.40;1.30;;;8.90;99.90;;;;;;4983151;28;20053;-68
2022/01/05 01:35:25;;;;;;;1.05;0.95;;;8.90;99.90;;;;;;4987517;28;20100;-68
2022/01/05 01:37:52;;;;;;;1.20;1.00;;;8.80;99.90;;;;;;4995800;28;20054;-67
2022/01/05 01:40:20;;;;;;;1.67;0.95;;;8.80;99.90;;;;;;4981706;28;20053;-67
2022/01/05 01:42:47;;;;;;;1.38;0.98;;;8.80;99.90;;;;;;4996295;28;20408;-67
2022/01/05 01:45:12;;;;;;;2.33;0.90;;;8.80;99.90;;;;;;4983749;28;20031;-67
2022/01/05 01:47:39;;;;;;;1.10;1.00;;;8.70;99.90;;;;;;4981347;28;20046;-67
2022/01/05 01:50:06;;;;;;;1.65;1.10;;;8.60;99.90;;;;;;4982225;28;20122;-67
2022/01/05 01:52:32;;;;;;;2.72;1.30;;;8.60;99.90;;;;;;4979158;28;20058;-68
2022/01/05 01:54:58;;;;;;;1.95;1.10;;;8.60;99.90;;;;;;4979607;28;20085;-67
2022/01/05 01:57:25;;;;;;;2.65;1.30;;;8.70;99.90;;;;;;4978053;28;20061;-68
2022/01/05 01:59:51;;;;;;;1.92;1.20;;;8.80;99.90;;;;;;4983065;28;20038;-68
2022/01/05 02:02:17;;;;;;;1.90;1.00;;;8.80;99.90;;;;;;4981103;28;20084;-68
2022/01/05 02:04:44;;;;;;;2.15;1.02;;;9.00;99.90;;;;;;4983605;28;20038;-68
2022/01/05 02:07:10;;;;;;;1.40;1.00;;;9.20;99.90;;;;;;4981552;28;20031;-68
2022/01/05 02:09:37;;;;;;;2.17;1.40;;;9.30;99.90;;;;;;4981031;28;20765;-67
2022/01/05 02:12:07;;;;;;;2.03;1.00;;;9.30;99.90;;;;;;4978356;28;20740;-67
2022/01/05 02:14:32;;;;;;;1.42;1.15;;;9.30;99.90;;;;;;4983890;28;20049;-68
2022/01/05 02:17:02;;;;;;;2.65;1.40;;;9.30;99.90;;;;;;4981289;28;20394;-68
2022/01/05 02:19:28;;;;;;;1.90;1.35;;;9.30;99.90;;;;;;4981874;28;20104;-68
2022/01/05 02:21:54;;;;;;;2.72;1.67;;;9.20;99.90;;;;;;4999962;28;20046;-67
2022/01/05 02:24:19;;;;;;;3.63;1.67;;;9.10;99.90;;;;;;4982339;28;20030;-68
2022/01/05 02:26:45;;;;;;;3.40;1.63;;;9.10;99.90;;;;;;4978251;28;20034;-68
2022/01/05 02:29:11;;;;;;;1.83;1.35;;;9.20;99.90;;;;;;4982262;28;20045;-68
2022/01/05 02:31:37;;;;;;;2.67;1.65;;;9.10;99.90;;;;;;4980227;28;20061;-68
2022/01/05 02:34:03;;;;;;;3.75;1.65;;;9.10;99.90;;;;;;4981815;28;20026;-67
2022/01/05 02:36:28;;;;;;;3.40;1.75;;;9.00;99.90;;;;;;4979861;28;20469;-68
2022/01/05 02:38:54;;;;;;;3.33;1.70;;;9.00;99.90;;;;;;4980697;28;20033;-68
2022/01/05 02:41:20;;;;;;;2.33;1.60;;;9.00;99.90;;;;;;4978754;28;20035;-68
2022/01/05 02:43:47;;;;;;;3.67;1.60;;;9.00;99.90;;;;;;4984944;28;20038;-68
2022/01/05 02:46:22;;;;;;;2.13;1.63;;;9.10;99.90;;;;;;4981960;28;20043;-68
2022/01/05 02:48:51;;;;;;;2.17;1.50;;;9.10;99.90;;;;;;4980667;28;20480;-68
2022/01/05 02:51:20;;;;;;;3.03;1.98;;;9.00;99.90;;;;;;4981416;28;20402;-68
2022/01/05 02:53:48;;;;;;;3.15;1.80;;;9.00;99.90;;;;;;4985903;28;20049;-68
2022/01/05 02:56:14;;;;;;;5.25;1.90;;;8.90;99.90;;;;;;4987167;28;20455;-68
2022/01/05 02:58:39;;;;;;;2.63;1.90;;;8.90;99.90;;;;;;4985518;28;20173;-68
2022/01/05 03:01:08;;;;;;;4.35;2.22;;;9.00;99.90;;;;;;4980830;28;21845;-68
2022/01/05 03:03:33;;;;;;;4.28;2.90;;;9.10;99.90;;;;;;4980554;28;20034;-68
2022/01/05 03:05:59;;;;;;;5.07;3.05;;;9.30;99.90;;;;;;4981431;28;20039;-68
2022/01/05 03:08:28;;;;;;;2.60;2.05;;;9.50;99.90;;;;;;4987408;28;20520;-69
2022/01/05 03:10:55;;;;;;;3.83;2.80;;;9.60;99.90;;;;;;4994781;28;20034;-68
2022/01/05 03:13:23;;;;;;;3.70;2.63;;;9.60;99.90;;;;;;4981521;28;20034;-68
2022/01/05 03:15:50;;;;;;;5.63;2.70;;;9.60;99.90;;;;;;4981538;28;20031;-68
2022/01/05 03:18:15;;;;;;;3.72;2.85;;;9.70;99.90;;;;;;4977330;28;20026;-68
2022/01/05 03:20:41;;;;;;;2.75;2.55;;;9.70;99.90;;;;;;4980226;28;20093;-68
2022/01/05 03:23:07;;;;;;;4.45;3.08;;;9.70;99.90;;;;;;4998059;28;20034;-68
2022/01/05 03:25:33;;;;;;;4.93;3.53;;;9.60;99.90;;;;;;4986238;28;20037;-67
2022/01/05 03:27:59;;;;;;;5.15;3.53;;;9.60;99.90;;;;;;4979462;28;20417;-68
2022/01/05 03:30:28;;;;;;;5.90;4.40;;;9.60;99.90;;;;;;4984582;28;20161;-68
2022/01/05 03:35:28;;;;;;;12.10;8.50;;;9.70;99.90;;;;;;4979536;28;20104;-68
2022/01/05 03:37:54;;;;;;;6.18;3.60;;;9.70;99.90;;;;;;4979510;28;20435;-68
2022/01/05 03:40:22;;;;;;;3.78;2.75;;;9.70;99.90;;;;;;4981572;28;20058;-68
2022/01/05 03:42:47;;;;;;;7.00;3.67;;;9.70;99.90;;;;;;4981311;28;20496;-67
2022/01/05 03:45:13;;;;;;;4.25;3.67;;;9.60;99.90;;;;;;4977793;28;20031;-67
2022/01/05 03:47:39;;;;;;;5.00;3.67;;;9.50;99.90;;;;;;4979656;28;20034;-67
2022/01/05 03:50:06;;;;;;;5.50;3.38;;;9.50;99.90;;;;;;4980602;28;20038;-67
2022/01/05 03:52:32;;;;;;;4.10;2.92;;;9.40;99.90;;;;;;4996495;28;20062;-67
2022/01/05 03:54:58;;;;;;;5.28;3.60;;;9.30;99.90;;;;;;4984207;28;20031;-68
2022/01/05 03:57:25;;;;;;;4.95;3.60;;;9.30;99.90;;;;;;4982847;28;20056;-67
2022/01/05 03:59:51;;;;;;;6.75;4.43;;;9.30;99.90;;;;;;4981384;28;20039;-69
2022/01/05 04:02:17;;;;;;;5.90;4.40;;;9.30;99.90;;;;;;4985450;28;20052;-67
2022/01/05 04:04:52;;;;;;;5.22;3.28;;;9.30;99.90;;;;;;4982890;28;20038;-67
2022/01/05 04:07:18;;;;;;;15.80;9.73;;;9.10;99.90;;;;;;4982391;28;20034;-69
2022/01/05 04:09:44;;;;;;;11.55;6.55;;;9.20;99.90;;;;;;4987534;28;20034;-69
2022/01/05 04:12:10;;;;;;;5.53;4.13;;;9.30;99.90;;;;;;4984133;28;20100;-68
2022/01/05 04:14:36;;;;;;;5.82;4.30;;;9.40;99.90;;;;;;4971352;28;20039;-67
2022/01/05 04:17:02;;;;;;;9.32;6.03;;;9.50;99.90;;;;;;4997971;28;20085;-68
2022/01/05 04:19:27;;;;;;;9.20;6.35;;;9.50;99.90;;;;;;4982035;28;20030;-68
2022/01/05 04:21:53;;;;;;;6.53;3.90;;;9.60;99.90;;;;;;4986839;28;20476;-68
2022/01/05 04:24:19;;;;;;;6.43;3.83;;;9.50;99.90;;;;;;4984086;28;20485;-68
2022/01/05 04:26:44;;;;;;;7.20;3.65;;;9.40;99.90;;;;;;4985912;28;20121;-68
2022/01/05 04:29:10;;;;;;;6.05;3.38;;;9.30;99.90;;;;;;4981524;28;20042;-68
2022/01/05 04:31:37;;;;;;;5.57;3.90;;;9.20;99.90;;;;;;4984531;28;20050;-68
2022/01/05 04:34:03;;;;;;;3.85;2.97;;;9.10;99.90;;;;;;4984122;28;20035;-68
2022/01/05 04:36:32;;;;;;;5.00;3.90;;;9.10;99.90;;;;;;4985535;28;20022;-68
2022/01/05 04:38:58;;;;;;;5.28;3.10;;;9.10;99.90;;;;;;4985095;28;20039;-67
2022/01/05 04:41:24;;;;;;;5.20;3.08;;;9.20;99.90;;;;;;4983155;28;20090;-68
2022/01/05 04:43:49;;;;;;;4.22;3.60;;;9.20;99.90;;;;;;4978706;28;20030;-68
2022/01/05 04:46:15;;;;;;;3.17;2.80;;;9.30;99.90;;;;;;4979515;28;20039;-69
2022/01/05 04:48:42;;;;;;;3.05;2.67;;;9.30;99.90;;;;;;4983833;28;20034;-68
2022/01/05 04:51:07;;;;;;;4.10;3.05;;;9.30;99.90;;;;;;4979338;28;20061;-68
2022/01/05 04:53:33;;;;;;;5.60;3.10;;;9.30;99.90;;;;;;4985909;28;20088;-69
2022/01/05 04:55:59;;;;;;;4.07;2.75;;;9.30;99.90;;;;;;4980959;28;20034;-68
2022/01/05 04:58:25;;;;;;;4.53;3.03;;;9.30;99.90;;;;;;4982100;28;20034;-69
2022/01/05 05:00:50;;;;;;;4.47;3.45;;;9.20;99.90;;;;;;4984182;28;20041;-70
2022/01/05 05:03:16;;;;;;;6.00;3.80;;;9.10;99.90;;;;;;4984379;28;20034;-69
2022/01/05 05:05:42;;;;;;;6.05;3.97;;;9.20;99.90;;;;;;4981015;28;21173;-69
2022/01/05 05:08:07;;;;;;;10.00;7.18;;;9.30;99.90;;;;;;4980123;28;20766;-69
2022/01/05 05:10:33;;;;;;;9.50;4.75;;;9.50;99.90;;;;;;4983294;28;20400;-68
2022/01/05 05:12:59;;;;;;;10.55;6.50;;;9.50;99.90;;;;;;4996782;28;20069;-68
2022/01/05 05:15:24;;;;;;;10.68;7.10;;;9.50;99.90;;;;;;4981767;28;20026;-67
2022/01/05 05:17:50;;;;;;;8.52;6.50;;;9.70;99.90;;;;;;4985002;28;20061;-67
2022/01/05 05:20:16;;;;;;;10.82;8.63;;;9.70;99.90;;;;;;4994683;28;20033;-67
2022/01/05 05:22:43;;;;;;;13.82;8.35;;;9.90;99.90;;;;;;4981314;28;20458;-69
2022/01/05 05:25:11;;;;;;;5.88;5.07;;;9.90;99.90;;;;;;4980151;28;20026;-67
2022/01/05 05:27:37;;;;;;;6.50;3.80;;;9.80;99.90;;;;;;4982546;28;20038;-67
2022/01/05 05:30:03;;;;;;;5.47;3.40;;;9.70;99.90;;;;;;4980899;28;20495;-67
2022/01/05 05:32:29;;;;;;;3.70;3.15;;;9.50;99.90;;;;;;4982273;28;20069;-67
2022/01/05 05:34:54;;;;;;;4.35;3.40;;;9.30;99.90;;;;;;4981678;28;20057;-68
2022/01/05 05:37:21;;;;;;;4.70;2.80;;;9.10;99.90;;;;;;4980976;28;20106;-67
2022/01/05 05:39:47;;;;;;;4.47;3.40;;;9.00;99.90;;;;;;4977840;28;20065;-67
2022/01/05 05:42:12;;;;;;;8.65;3.72;;;8.90;99.90;;;;;;4981105;28;22106;-67
2022/01/05 05:44:38;;;;;;;4.38;3.90;;;8.80;99.90;;;;;;4995314;28;20580;-67
2022/01/05 05:47:05;;;;;;;11.85;7.35;;;8.90;99.90;;;;;;4979132;28;20044;-67
2022/01/05 05:49:31;;;;;;;17.63;12.02;;;8.90;99.90;;;;;;4980129;28;20117;-66
2022/01/05 05:51:57;;;;;;;6.18;5.03;;;9.00;99.90;;;;;;4981651;28;20061;-67
2022/01/05 05:54:23;;;;;;;7.28;4.80;;;9.00;99.90;;;;;;4983616;28;20037;-67
2022/01/05 05:56:48;;;;;;;11.27;6.72;;;9.10;99.90;;;;;;4982338;28;20110;-67
2022/01/05 05:59:14;;;;;;;20.23;18.13;;;9.20;99.90;;;;;;4985024;28;20037;-67
2022/01/05 06:01:40;;;;;;;22.30;19.90;;;9.40;99.90;;;;;;4981477;28;20095;-68
2022/01/05 06:04:06;;;;;;;19.85;12.00;;;9.50;99.90;;;;;;4981032;28;20038;-67
2022/01/05 06:06:31;;;;;;;12.23;8.70;;;9.60;99.90;;;;;;4985752;28;20037;-68
2022/01/05 06:08:57;;;;;;;12.98;8.80;;;9.70;99.90;;;;;;4977089;28;20039;-66
2022/01/05 06:11:23;;;;;;;13.05;9.23;;;9.70;99.90;;;;;;4978867;28;20733;-67
2022/01/05 06:13:50;;;;;;;14.38;9.38;;;9.80;99.90;;;;;;4984829;28;20385;-67
2022/01/05 06:16:16;;;;;;;14.68;10.70;;;9.80;99.90;;;;;;4981935;28;20373;-67
2022/01/05 06:18:42;;;;;;;11.07;6.75;;;9.80;99.90;;;;;;4981017;28;20550;-66
2022/01/05 06:21:07;;;;;;;10.38;6.30;;;9.70;99.90;;;;;;4981266;28;20057;-68
2022/01/05 06:23:33;;;;;;;8.52;5.97;;;9.60;99.90;;;;;;4982775;28;20100;-67
2022/01/05 06:25:59;;;;;;;7.82;5.68;;;9.30;99.90;;;;;;4978294;28;20071;-67
2022/01/05 06:28:25;;;;;;;8.40;5.90;;;9.30;99.90;;;;;;4977548;28;21762;-68
2022/01/05 06:30:51;;;;;;;7.97;6.15;;;9.20;99.90;;;;;;4982354;28;20027;-68
2022/01/05 06:33:16;;;;;;;7.28;5.75;;;9.20;99.90;;;;;;4982179;28;20038;-68
2022/01/05 06:35:42;;;;;;;16.63;10.93;;;9.20;99.90;;;;;;4981950;28;20026;-68
2022/01/05 06:38:08;;;;;;;13.27;8.60;;;9.30;99.90;;;;;;4982669;28;20128;-67
2022/01/05 06:40:33;;;;;;;9.10;6.22;;;9.40;99.90;;;;;;4979905;28;20031;-68
2022/01/05 06:43:01;;;;;;;5.63;4.50;;;9.50;99.90;;;;;;4981062;28;20097;-68
2022/01/05 06:45:26;;;;;;;6.75;4.93;;;9.60;99.90;;;;;;4979864;28;20034;-68
2022/01/05 06:47:52;;;;;;;6.50;3.55;;;9.60;99.90;;;;;;4980303;28;20090;-68
2022/01/05 06:50:18;;;;;;;6.15;4.05;;;9.60;99.90;;;;;;4977391;28;20034;-68
2022/01/05 06:52:44;;;;;;;5.13;4.00;;;9.60;99.90;;;;;;4979581;28;20042;-68
2022/01/05 06:55:10;;;;;;;4.80;3.95;;;9.60;99.90;;;;;;4979817;28;20033;-69
2022/01/05 06:57:40;;;;;;;7.45;4.22;;;9.60;99.90;;;;;;4980874;28;20135;-68
2022/01/05 07:00:07;;;;;;;5.93;4.05;;;9.60;99.90;;;;;;4979897;28;20567;-67
2022/01/05 07:02:33;;;;;;;5.47;4.20;;;9.60;99.90;;;;;;4980488;28;20049;-69
2022/01/05 07:04:59;;;;;;;4.78;3.63;;;9.70;99.90;;;;;;4980856;28;20030;-68
2022/01/05 07:07:24;;;;;;;5.88;3.72;;;9.60;99.90;;;;;;4984017;28;20526;-68
2022/01/05 07:09:50;;;;;;;5.97;3.88;;;9.60;99.90;;;;;;4979710;28;20034;-68
2022/01/05 07:12:15;;;;;;;5.00;4.03;;;9.60;99.90;;;;;;4982101;28;20043;-68
2022/01/05 07:14:41;;;;;;;6.30;4.05;;;9.60;99.90;;;;;;4979720;28;20046;-67
2022/01/05 07:17:07;;;;;;;6.05;3.63;;;9.60;99.90;;;;;;4979512;28;20023;-68
2022/01/05 07:19:36;;;;;;;4.72;3.58;;;9.70;99.90;;;;;;4976388;28;20031;-68
2022/01/05 07:22:01;;;;;;;6.03;4.53;;;9.70;99.90;;;;;;4978161;28;20047;-68
2022/01/05 07:24:27;;;;;;;79.55;48.63;;;9.70;99.90;;;;;;4980872;28;20041;-68
2022/01/05 07:26:53;;;;;;;18.23;12.27;;;9.70;99.90;;;;;;4977457;28;20034;-67
2022/01/05 07:29:19;;;;;;;9.75;6.50;;;9.80;99.90;;;;;;4979736;28;20042;-67
2022/01/05 07:31:48;;;;;;;8.70;5.93;;;9.80;99.90;;;;;;4981634;28;20038;-68
2022/01/05 07:34:14;;;;;;;9.48;7.05;;;9.80;99.90;;;;;;4997886;28;20030;-68
2022/01/05 07:36:40;;;;;;;13.32;7.78;;;9.90;99.90;;;;;;4977782;28;20109;-67
2022/01/05 07:39:06;;;;;;;11.50;8.38;;;9.70;99.90;;;;;;4994191;28;20729;-67
2022/01/05 07:41:33;;;;;;;13.05;7.25;;;9.80;99.90;;;;;;4978091;28;20042;-67
2022/01/05 07:43:59;;;;;;;25.58;15.80;;;9.70;99.90;;;;;;4982831;28;20096;-69
2022/01/05 07:46:24;;;;;;;29.02;18.88;;;9.50;99.90;;;;;;4982593;28;20516;-67
2022/01/05 07:48:50;;;;;;;14.13;9.30;;;9.50;99.90;;;;;;4981373;28;20038;-69
2022/01/05 07:51:16;;;;;;;38.22;24.35;;;9.50;99.90;;;;;;4983203;28;20062;-69
2022/01/05 07:53:42;;;;;;;20.08;13.27;;;9.60;99.90;;;;;;4979627;28;20042;-67
2022/01/05 07:56:08;;;;;;;27.13;24.15;;;9.50;99.90;;;;;;4985488;28;20030;-68
2022/01/05 07:58:35;;;;;;;19.02;17.20;;;9.40;99.90;;;;;;4981957;28;20074;-69
2022/01/05 08:01:02;;;;;;;10.55;8.93;;;9.30;99.90;;;;;;4983375;28;20656;-69
2022/01/05 08:03:28;;;;;;;5.78;5.15;;;9.20;99.90;;;;;;4982553;28;20532;-68
2022/01/05 08:05:53;;;;;;;6.35;4.90;;;9.30;99.90;;;;;;4980125;28;20057;-67
2022/01/05 08:08:19;;;;;;;5.70;5.10;;;9.30;99.90;;;;;;4982594;28;20148;-67
2022/01/05 08:10:45;;;;;;;8.13;6.57;;;9.30;99.90;;;;;;4980860;28;20046;-67
2022/01/05 08:13:11;;;;;;;7.43;6.47;;;9.40;99.90;;;;;;4980249;28;20050;-69
2022/01/05 08:15:36;;;;;;;8.77;5.97;;;9.50;99.90;;;;;;4982771;28;20027;-67
2022/01/05 08:18:02;;;;;;;8.32;7.03;;;9.50;99.90;;;;;;4983127;28;20030;-67
2022/01/05 08:20:28;;;;;;;7.40;5.60;;;9.60;99.90;;;;;;4982237;28;20039;-68
2022/01/05 08:22:56;;;;;;;5.32;4.43;;;9.70;99.90;;;;;;4983404;28;20058;-67
2022/01/05 08:25:22;;;;;;;21.52;12.15;;;9.80;99.90;;;;;;4980044;28;20383;-67
2022/01/05 08:27:48;;;;;;;17.85;11.50;;;10.00;99.90;;;;;;4984168;28;20034;-67
2022/01/05 08:30:16;;;;;;;9.48;7.20;;;10.00;99.90;;;;;;4982724;28;20038;-67
2022/01/05 08:32:42;;;;;;;10.07;4.95;;;9.90;99.90;;;;;;4981800;28;20027;-68
2022/01/05 08:35:10;;;;;;;7.72;4.28;;;10.00;99.90;;;;;;4983633;28;20989;-68
2022/01/05 08:37:36;;;;;;;5.28;4.07;;;10.10;99.90;;;;;;4981395;28;20513;-67
2022/01/05 08:40:03;;;;;;;7.15;4.90;;;10.00;99.90;;;;;;4982331;28;20038;-67
2022/01/05 08:42:28;;;;;;;8.55;4.63;;;10.00;99.90;;;;;;4983638;28;20026;-67
2022/01/05 08:44:54;;;;;;;6.78;4.75;;;10.00;99.90;;;;;;4981630;28;20096;-66
2022/01/05 08:47:19;;;;;;;7.50;4.63;;;9.90;99.90;;;;;;4980694;28;20030;-68
2022/01/05 08:49:45;;;;;;;5.70;4.53;;;10.00;99.90;;;;;;4982366;28;20029;-68
2022/01/05 08:52:13;;;;;;;7.90;4.50;;;9.90;99.90;;;;;;4986613;28;20066;-68
2022/01/05 08:54:38;;;;;;;6.38;4.45;;;9.90;99.90;;;;;;4982028;28;20041;-68
2022/01/05 08:57:05;;;;;;;4.65;3.45;;;10.00;99.90;;;;;;4985106;28;20022;-68
2022/01/05 08:59:30;;;;;;;4.05;3.58;;;10.00;99.90;;;;;;4980627;28;20022;-68
2022/01/05 09:01:56;;;;;;;4.32;3.60;;;9.90;99.90;;;;;;4975366;28;20064;-68
2022/01/05 09:04:22;;;;;;;5.25;3.70;;;9.80;99.90;;;;;;4977612;28;20107;-68
2022/01/05 09:06:48;;;;;;;4.65;3.17;;;9.80;99.90;;;;;;4981332;28;20041;-68
2022/01/05 09:09:14;;;;;;;4.88;3.38;;;9.90;99.90;;;;;;4980651;28;20023;-69
2022/01/05 09:11:39;;;;;;;3.35;2.53;;;9.90;99.90;;;;;;4981409;28;20080;-69
2022/01/05 09:14:05;;;;;;;1.90;1.70;;;10.00;99.90;;;;;;4978731;28;20826;-69
2022/01/05 09:16:32;;;;;;;1.88;1.48;;;10.10;99.90;;;;;;4972260;28;20567;-67
2022/01/05 09:18:58;;;;;;;3.17;1.98;;;10.10;99.90;;;;;;4980310;28;20037;-69
2022/01/05 09:21:24;;;;;;;4.80;2.20;;;10.10;99.90;;;;;;4972155;28;20109;-69
2022/01/05 09:23:50;;;;;;;2.60;1.70;;;10.10;99.90;;;;;;4979543;28;20381;-69
2022/01/05 09:26:15;;;;;;;3.75;2.58;;;10.20;99.90;;;;;;4981339;28;20027;-69
2022/01/05 09:28:44;;;;;;;2.20;1.90;;;10.20;99.90;;;;;;4978353;28;20444;-69
2022/01/05 09:31:10;;;;;;;2.83;2.15;;;10.20;99.90;;;;;;4978136;28;20042;-68
2022/01/05 09:33:36;;;;;;;4.18;2.40;;;10.20;99.90;;;;;;4976197;28;20038;-68
2022/01/05 09:36:10;;;;;;;6.97;3.45;;;10.20;99.90;;;;;;4978652;28;20029;-68
2022/01/05 09:44:08;;;;;;;3.13;2.83;;;10.40;99.90;;;;;;4980007;28;20065;-68
2022/01/05 09:47:02;;;;;;;3.35;3.05;;;10.30;99.90;;;;;;4973677;28;20038;-68
2022/01/05 09:49:59;;;;;;;3.35;3.05;;;10.40;99.90;;;;;;4974356;28;20569;-68
2022/01/05 09:52:25;;;;;;;3.30;3.00;;;10.40;99.90;;;;;;4975548;28;20677;-68
2022/01/05 09:54:52;;;;;;;3.75;3.33;;;10.40;99.90;;;;;;4976777;28;20023;-68
2022/01/05 09:57:21;;;;;;;4.45;3.75;;;10.40;99.90;;;;;;4979391;28;20038;-68
2022/01/05 09:59:50;;;;;;;3.70;3.20;;;10.50;99.90;;;;;;4979928;28;20582;-68
2022/01/05 10:02:16;;;;;;;4.45;3.97;;;10.40;99.90;;;;;;4979495;28;20049;-69
2022/01/05 10:04:41;;;;;;;4.00;3.55;;;10.50;99.90;;;;;;4978153;28;20502;-69
2022/01/05 10:07:11;;;;;;;3.10;2.80;;;10.50;99.90;;;;;;4977817;28;20030;-69
2022/01/05 10:09:41;;;;;;;3.58;2.88;;;10.60;99.90;;;;;;4978403;28;20046;-69
2022/01/05 10:12:09;;;;;;;2.78;2.47;;;10.50;99.90;;;;;;4978585;28;20147;-68
2022/01/05 10:14:38;;;;;;;14.85;11.38;;;10.50;99.90;;;;;;4976786;28;20031;-69
2022/01/05 10:17:09;;;;;;;2.97;2.78;;;10.40;99.90;;;;;;4975679;28;20484;-69
2022/01/05 10:19:36;;;;;;;2.33;2.08;;;10.40;99.90;;;;;;4975496;28;20034;-68
2022/01/05 10:22:03;;;;;;;1.70;1.60;;;10.50;99.90;;;;;;4975017;28;20149;-69
2022/01/05 10:24:50;;;;;;;1.90;1.67;;;10.40;99.90;;;;;;4979218;28;20034;-67
2022/01/05 10:27:21;;;;;;;2.80;1.95;;;10.30;99.90;;;;;;4976664;28;20595;-68
2022/01/05 10:30:10;;;;;;;2.83;1.75;;;10.30;99.90;;;;;;4975813;28;20026;-68
2022/01/05 10:32:36;;;;;;;1.13;1.02;;;10.20;99.90;;;;;;4975473;28;20057;-68
2022/01/05 10:35:16;;;;;;;1.55;1.30;;;10.20;99.90;;;;;;4980024;28;20030;-68
2022/01/05 10:37:58;;;;;;;1.25;1.15;;;10.20;99.90;;;;;;4974291;28;20034;-69
2022/01/05 10:40:24;;;;;;;1.30;1.20;;;10.00;99.90;;;;;;4970089;28;20608;-68
2022/01/05 10:42:55;;;;;;;1.17;1.02;;;10.00;99.90;;;;;;4975985;28;20034;-68
2022/01/05 10:45:41;;;;;;;0.98;0.90;;;9.90;99.90;;;;;;4977513;28;20030;-68
2022/01/05 10:48:09;;;;;;;1.13;1.10;;;9.90;99.90;;;;;;4977905;28;20034;-68
2022/01/05 10:50:36;;;;;;;0.70;0.50;;;9.90;99.90;;;;;;4975232;28;20030;-68
2022/01/05 10:53:03;;;;;;;0.63;0.30;;;9.90;99.90;;;;;;4975499;28;20055;-68
2022/01/05 10:55:30;;;;;;;0.40;0.22;;;9.90;99.90;;;;;;4978443;28;20027;-68
2022/01/05 10:58:22;;;;;;;0.30;0.30;;;10.00;99.90;;;;;;4984115;28;20567;-68
2022/01/05 11:00:53;;;;;;;0.20;0.20;;;9.90;99.90;;;;;;4981857;28;20081;-68
2022/01/05 11:03:25;;;;;;;0.20;0.20;;;9.80;99.90;;;;;;4977488;28;20069;-68
2022/01/05 11:06:02;;;;;;;0.10;0.10;;;9.90;99.90;;;;;;4981063;28;20034;-68
2022/01/05 11:08:33;;;;;;;0.52;0.20;;;9.90;99.90;;;;;;4977554;28;20560;-68
2022/01/05 11:10:58;;;;;;;0.17;0.10;;;9.90;99.90;;;;;;4979165;28;20077;-68
2022/01/05 11:13:27;;;;;;;0.10;0.10;;;10.00;99.90;;;;;;4981178;28;20046;-68
2022/01/05 11:15:58;;;;;;;0.10;0.10;;;10.00;99.50;;;;;;4983885;28;20026;-68
2022/01/05 11:18:30;;;;;;;0.10;0.10;;;10.00;99.10;;;;;;4982543;28;20033;-67
2022/01/05 11:21:05;;;;;;;0.20;0.13;;;9.90;99.40;;;;;;4981644;28;20045;-68
2022/01/05 11:23:32;;;;;;;0.38;0.25;;;9.90;99.60;;;;;;4988871;28;20034;-68
2022/01/05 11:26:02;;;;;;;0.63;0.40;;;9.80;98.90;;;;;;4982849;28;20035;-67
2022/01/05 11:28:29;;;;;;;0.30;0.30;;;9.60;99.10;;;;;;4988364;28;20038;-65
2022/01/05 11:30:56;;;;;;;0.22;0.22;;;9.60;99.50;;;;;;4984434;28;20110;-67
2022/01/05 11:33:23;;;;;;;0.30;0.30;;;9.50;99.60;;;;;;4985632;28;20039;-68
2022/01/05 11:35:49;;;;;;;0.20;0.20;;;9.50;99.10;;;;;;4984498;28;20034;-67
2022/01/05 11:38:15;;;;;;;0.35;0.20;;;9.40;98.50;;;;;;4980281;28;20025;-68
2022/01/05 11:40:54;;;;;;;0.32;0.17;;;9.40;99.50;;;;;;4984488;28;20027;-67
2022/01/05 11:43:34;;;;;;;0.15;0.15;;;9.30;99.50;;;;;;4986168;28;20477;-68
2022/01/05 11:46:23;;;;;;;0.20;0.20;;;9.30;99.90;;;;;;4983547;28;20022;-67
2022/01/05 11:49:11;;;;;;;0.25;0.20;;;9.20;99.40;;;;;;4984237;28;20039;-68
2022/01/05 11:51:43;;;;;;;0.20;0.13;;;9.20;99.90;;;;;;4987939;28;20080;-68
2022/01/05 11:54:19;;;;;;;0.45;0.30;;;9.30;99.70;;;;;;4981291;28;20030;-68
2022/01/05 11:57:05;;;;;;;0.20;0.20;;;9.20;99.00;;;;;;4982113;28;20031;-67
2022/01/05 11:59:34;;;;;;;0.10;0.10;;;9.20;98.80;;;;;;4983785;28;20029;-67
2022/01/05 12:02:06;;;;;;;0.17;0.13;;;9.20;99.30;;;;;;4982935;28;20402;-68
2022/01/05 12:04:52;;;;;;;0.10;0.10;;;9.10;99.40;;;;;;4982407;28;20033;-68
2022/01/05 12:07:36;;;;;;;0.13;0.10;;;9.10;99.20;;;;;;4980101;28;20037;-69
2022/01/05 12:10:12;;;;;;;0.10;0.10;;;9.00;99.30;;;;;;4979604;28;20037;-69
2022/01/05 12:12:56;;;;;;;0.20;0.20;;;9.00;99.40;;;;;;4979939;28;20102;-69
2022/01/05 12:15:45;;;;;;;0.28;0.20;;;8.90;99.30;;;;;;4980467;28;20039;-69
2022/01/05 12:18:19;;;;;;;0.10;0.03;;;8.70;99.30;;;;;;4982882;28;20062;-69
2022/01/05 12:20:45;;;;;;;0.20;0.10;;;8.70;99.10;;;;;;4982177;28;20520;-68
2022/01/05 12:23:25;;;;;;;0.17;0.10;;;8.60;99.30;;;;;;4981834;28;20035;-68
2022/01/05 12:26:03;;;;;;;0.20;0.20;;;8.60;99.50;;;;;;4996706;28;20035;-68
2022/01/05 12:28:36;;;;;;;0.05;0.00;;;8.60;99.60;;;;;;4982775;28;20485;-69
2022/01/05 12:31:02;;;;;;;;;;;8.50;98.90;;;;;;4964627;28;20670;-68
2022/01/05 12:33:40;;;;;;;0.10;0.10;;;8.60;99.40;;;;;;4972945;28;19980;-68
2022/01/05 12:36:08;;;;;;;0.20;0.20;;;8.70;99.20;;;;;;4971539;28;21293;-69
2022/01/05 12:38:47;;;;;;;0.10;0.10;;;8.70;99.20;;;;;;4969259;28;20077;-69
2022/01/05 12:41:26;;;;;;;0.20;0.20;;;8.60;99.60;;;;;;4975680;28;20537;-69
2022/01/05 12:43:53;;;;;;;0.20;0.20;;;8.60;99.10;;;;;;4974191;28;20094;-69
2022/01/05 12:46:39;;;;;;;0.20;0.20;;;8.60;99.60;;;;;;4972438;28;20145;-68
2022/01/05 12:49:13;;;;;;;0.10;0.10;;;8.60;99.80;;;;;;4975657;28;20144;-68
2022/01/05 12:51:52;;;;;;;0.20;0.10;;;8.60;99.00;;;;;;4974138;28;20089;-68
2022/01/05 12:54:24;;;;;;;0.35;0.20;;;8.70;99.20;;;;;;4974839;28;20061;-69
2022/01/05 12:56:54;;;;;;;0.17;0.10;;;8.70;98.40;;;;;;4974927;28;20050;-68
2022/01/05 12:59:42;;;;;;;0.10;0.10;;;8.60;98.70;;;;;;4974099;28;20517;-68
2022/01/05 13:02:10;;;;;;;0.17;0.17;;;8.50;99.30;;;;;;4975732;28;20054;-68
2022/01/05 13:04:38;;;;;;;0.10;0.10;;;8.50;99.30;;;;;;4974766;28;20054;-69